Guatay, CA (91931)

10:43 PM PDT on April 25, 2017 (GMT -0700)
MF0527 | | Change Station

Elev 4040 ft 32.85 °N, 116.56 °W | Updated 26 minutes ago

Partly Cloudy
Partly Cloudy
45.0 °F
Feels Like 45 °F
N
0.0
Wind Variable Wind from North
Gusts 2.0 mph

Today
High -- | Low -- °F
--% Chance of Precip.
Yesterday
High -- | Low -- °F
Precip. -- in
Pressure 29.87 in
Visibility -9999.0 miles
Clouds
Windchill 45 °F
Dew Point 43 °F
Humidity 92%
Rainfall 0.00 in
Snow Depth Not available.
6:04 AM 7:23 PM
Waning Crescent, 0% visible
METAR KCZZ 260452Z AUTO VRB03KT 10/07 A2992 RMK AO1 SLP114 T01000072
Pressure 29.87 in
Visibility -9999.0 miles
Clouds
Windchill 45 °F
Dew Point 43 °F
Humidity 92%
Rainfall 0.00 in
Snow Depth Not available.
6:04 AM 7:23 PM
Waning Crescent, 0% visible
METAR KCZZ 260452Z AUTO VRB03KT 10/07 A2992 RMK AO1 SLP114 T01000072

Get Severe Weather Alerts

Thanks for signing up!

Be on the lookout for a verification email in your inbox.

You'll start receiving the daily forecast at 8 AM.

×

10-Day Weather Forecast

Almanac

Astronomy

Apr. 25, 2017 Rise Set
Actual Time
Civil Twilight
Nautical Twilight
Astronomical Twilight
Moon
Length of Visible Light
Length of Day
Tomorrow will be .
, % of the Moon is Illuminated

Today's Extremes

State Highs State Lows

Community

WunderPhotos

WunderBlog® & News

Nearby

Air Quality

  Air Quality AQ Index Pollutant
Not available.

Snow Depth

Station Depth Elevation

Earthquake Activity

City Distance Mag. Time & Date
Minimum magnitude displayed is 2.5.

Coastal Water Temperatures

Place Temperature

Stations

Nearby Weather Stations

Station Location Temp. Windchill Dew Point Humidity Wind Precip. Elev Updated Type
                   

Watches & Warnings

There are currently no watches in effect.